Time;durP1;ratioP1;P1;durP2;ratioP2;P2;SDS_P1;SDS_P2;PMS_P1;PMS_P2;Temp;Humidity;BMP_temperature;BMP_pressure;BME280_temperature;BME280_humidity;BME280_pressure;Samples;Min_cycle;Max_cycle;Signal;HPM_P1;HPM_P2
2022/10/21 00:00:42;;;;;;;28.37;15.17;;;3.30;99.90;;;;;;4752796;30;20230;-74
2022/10/21 00:03:09;;;;;;;26.97;14.50;;;3.30;99.90;;;;;;4767552;30;20216;-73
2022/10/21 00:05:36;;;;;;;27.57;14.60;;;3.30;99.90;;;;;;4752450;30;20211;-74
2022/10/21 00:08:03;;;;;;;31.03;14.67;;;3.20;99.90;;;;;;4767395;30;20684;-74
2022/10/21 00:10:30;;;;;;;29.37;14.30;;;3.20;99.90;;;;;;4752423;30;20214;-73
2022/10/21 00:12:58;;;;;;;29.27;14.57;;;3.20;99.90;;;;;;4753676;30;20724;-73
2022/10/21 00:15:25;;;;;;;27.73;14.47;;;3.20;99.90;;;;;;4766535;30;20612;-74
2022/10/21 00:17:52;;;;;;;27.40;14.27;;;3.20;99.90;;;;;;4767377;30;20214;-74
2022/10/21 00:20:20;;;;;;;26.27;14.07;;;3.30;99.90;;;;;;4751854;30;20223;-73
2022/10/21 00:22:52;;;;;;;28.50;14.80;;;3.20;99.90;;;;;;4752234;30;20639;-73
2022/10/21 00:25:19;;;;;;;30.27;15.23;;;3.20;99.90;;;;;;4752093;30;20226;-74
2022/10/21 00:27:46;;;;;;;27.13;14.60;;;3.20;99.90;;;;;;4752214;30;20238;-73
2022/10/21 00:30:13;;;;;;;28.60;13.80;;;3.10;99.90;;;;;;4752063;30;20225;-73
2022/10/21 00:32:40;;;;;;;28.40;14.53;;;3.10;99.90;;;;;;4751752;30;20214;-73
2022/10/21 00:35:08;;;;;;;29.43;14.60;;;3.10;99.90;;;;;;4751903;30;20595;-73
2022/10/21 00:37:35;;;;;;;32.87;15.10;;;3.10;99.90;;;;;;4766996;30;20205;-74
2022/10/21 00:40:03;;;;;;;29.47;14.77;;;3.00;99.90;;;;;;4751879;30;20569;-74
2022/10/21 00:42:36;;;;;;;28.60;14.60;;;3.00;99.90;;;;;;4751901;30;20216;-73
2022/10/21 00:45:08;;;;;;;28.13;14.27;;;3.00;99.90;;;;;;4752974;30;20265;-74
2022/10/21 00:47:52;;;;;;;30.03;15.13;;;3.00;99.90;;;;;;4751952;30;20214;-74
2022/10/21 00:50:35;;;;;;;29.90;14.13;;;3.00;99.90;;;;;;4766379;30;20247;-73
2022/10/21 00:53:12;;;;;;;26.30;13.87;;;3.00;99.90;;;;;;4751878;30;20256;-73
2022/10/21 00:55:47;;;;;;;28.03;14.70;;;2.90;99.90;;;;;;4751795;30;20674;-73
2022/10/21 00:58:15;;;;;;;27.07;14.33;;;2.90;99.90;;;;;;4752869;30;20604;-74
2022/10/21 01:00:43;;;;;;;27.70;13.97;;;2.80;99.90;;;;;;4751610;30;20230;-73
2022/10/21 01:03:10;;;;;;;28.47;13.93;;;2.90;99.90;;;;;;4751601;30;20568;-73
2022/10/21 01:05:40;;;;;;;31.80;14.60;;;2.90;99.90;;;;;;4737011;30;20217;-73
2022/10/21 01:08:07;;;;;;;27.57;13.67;;;2.90;99.90;;;;;;4752895;30;20548;-73
2022/10/21 01:10:36;;;;;;;32.53;15.30;;;2.80;99.90;;;;;;4766268;30;20309;-73
2022/10/21 01:13:22;;;;;;;28.73;14.13;;;2.80;99.90;;;;;;4752635;30;20665;-73
2022/10/21 01:16:04;;;;;;;25.47;14.23;;;2.70;99.90;;;;;;4766211;30;20198;-73
2022/10/21 01:18:48;;;;;;;30.30;14.60;;;2.80;99.90;;;;;;4766128;30;20216;-73
2022/10/21 01:21:31;;;;;;;29.33;14.27;;;2.80;99.90;;;;;;4751103;30;20236;-73
2022/10/21 01:24:29;;;;;;;29.47;14.60;;;2.70;99.90;;;;;;4751254;30;20217;-74
2022/10/21 01:27:05;;;;;;;27.57;13.90;;;2.70;99.90;;;;;;4751800;30;20274;-73
2022/10/21 01:29:53;;;;;;;27.30;13.80;;;2.70;99.90;;;;;;4751125;30;20233;-73
2022/10/21 01:32:49;;;;;;;27.00;13.93;;;2.70;99.90;;;;;;4751052;30;20202;-73
2022/10/21 01:35:33;;;;;;;30.03;13.70;;;2.70;99.90;;;;;;4750965;30;20203;-73
2022/10/21 01:38:00;;;;;;;27.80;13.53;;;2.70;99.90;;;;;;4751366;30;20731;-73
2022/10/21 01:40:36;;;;;;;29.37;13.57;;;2.70;99.90;;;;;;4751184;30;20668;-73
2022/10/21 01:43:18;;;;;;;24.80;13.00;;;2.70;99.90;;;;;;4751053;30;20674;-73
2022/10/21 01:45:53;;;;;;;24.20;12.97;;;2.80;99.90;;;;;;4750782;30;20232;-73
2022/10/21 01:48:29;;;;;;;25.20;12.97;;;2.70;99.90;;;;;;4751016;30;20640;-73
2022/10/21 01:51:00;;;;;;;27.30;13.63;;;2.70;99.90;;;;;;4751916;30;20278;-73
2022/10/21 01:53:37;;;;;;;26.10;13.50;;;2.70;99.90;;;;;;4752611;30;20542;-73
2022/10/21 01:56:06;;;;;;;25.57;12.90;;;2.70;99.90;;;;;;4736486;30;20209;-73
2022/10/21 01:58:36;;;;;;;28.57;13.40;;;2.60;99.90;;;;;;4736307;30;20507;-74
2022/10/21 02:01:06;;;;;;;30.30;14.33;;;2.70;99.90;;;;;;4736296;30;20229;-73
2022/10/21 02:03:39;;;;;;;27.40;14.23;;;2.60;99.90;;;;;;4752251;30;20196;-73
2022/10/21 02:06:06;;;;;;;27.83;14.10;;;2.60;99.90;;;;;;4721816;30;20776;-74
2022/10/21 02:08:34;;;;;;;28.30;13.93;;;2.50;99.90;;;;;;4736404;30;20202;-74
2022/10/21 02:11:06;;;;;;;26.37;13.50;;;2.60;99.90;;;;;;4752239;30;20278;-74
2022/10/21 02:13:43;;;;;;;25.93;14.03;;;2.50;99.90;;;;;;4736242;30;20215;-73
2022/10/21 02:16:15;;;;;;;27.20;13.97;;;2.50;99.90;;;;;;4751205;30;20209;-73
2022/10/21 02:18:42;;;;;;;27.70;13.50;;;2.50;99.90;;;;;;4736084;30;20247;-73
2022/10/21 02:21:16;;;;;;;30.50;14.77;;;2.40;99.90;;;;;;4735608;30;20235;-73
2022/10/21 02:23:52;;;;;;;27.93;14.07;;;2.40;99.90;;;;;;4736092;30;20209;-73
2022/10/21 02:26:24;;;;;;;26.33;13.27;;;2.40;99.90;;;;;;4750723;30;20265;-74
2022/10/21 02:28:54;;;;;;;26.37;13.60;;;2.40;99.90;;;;;;4736081;30;20211;-74
2022/10/21 02:31:40;;;;;;;28.33;13.83;;;2.30;99.90;;;;;;4751781;30;20768;-74
2022/10/21 02:34:36;;;;;;;26.97;13.63;;;2.30;99.90;;;;;;4736193;30;20209;-74
2022/10/21 02:37:24;;;;;;;30.23;13.67;;;2.30;99.90;;;;;;4751854;30;20209;-74
2022/10/21 02:39:58;;;;;;;27.13;14.07;;;2.30;99.90;;;;;;4739725;30;20275;-73
2022/10/21 02:42:31;;;;;;;30.70;14.17;;;2.20;99.90;;;;;;4739253;30;20235;-74
2022/10/21 02:45:01;;;;;;;26.70;13.77;;;2.30;99.90;;;;;;4753959;30;20213;-73
2022/10/21 02:47:28;;;;;;;29.43;13.97;;;2.20;99.90;;;;;;4755119;30;20276;-74
2022/10/21 02:49:55;;;;;;;27.00;13.87;;;2.20;99.90;;;;;;4754781;30;20705;-74
2022/10/21 02:52:23;;;;;;;31.63;14.77;;;2.20;99.90;;;;;;4738876;30;20207;-74
2022/10/21 02:54:50;;;;;;;29.97;14.57;;;2.10;99.90;;;;;;4753616;30;20210;-74
2022/10/21 02:57:17;;;;;;;30.40;14.83;;;2.00;99.90;;;;;;4739015;30;20214;-74
2022/10/21 02:59:44;;;;;;;31.47;14.93;;;1.90;99.90;;;;;;4753585;30;20217;-73
2022/10/21 03:02:11;;;;;;;28.17;14.87;;;2.00;99.90;;;;;;4738859;30;20241;-73
2022/10/21 03:04:38;;;;;;;28.97;14.63;;;2.00;99.90;;;;;;4738797;30;20233;-73
2022/10/21 03:07:06;;;;;;;30.77;15.13;;;2.00;99.90;;;;;;4754538;30;20258;-74
2022/10/21 03:09:33;;;;;;;31.23;14.50;;;2.00;99.90;;;;;;4753574;30;20292;-73
2022/10/21 03:12:00;;;;;;;29.90;14.47;;;2.00;99.90;;;;;;4738713;30;20221;-74
2022/10/21 03:14:27;;;;;;;27.87;14.37;;;2.00;99.90;;;;;;4738697;30;20631;-73
2022/10/21 03:16:54;;;;;;;27.63;13.57;;;2.10;99.90;;;;;;4754653;30;20210;-73
2022/10/21 03:19:21;;;;;;;26.67;14.20;;;2.10;99.90;;;;;;4738640;30;20672;-73
2022/10/21 03:21:48;;;;;;;26.53;13.27;;;2.00;99.90;;;;;;4738399;30;20267;-73
2022/10/21 03:24:16;;;;;;;26.63;14.00;;;2.00;99.90;;;;;;4754437;30;20622;-73
2022/10/21 03:26:54;;;;;;;28.77;14.10;;;1.90;99.90;;;;;;4738476;30;20643;-72
2022/10/21 03:29:22;;;;;;;26.20;13.97;;;2.00;99.90;;;;;;4738461;30;20209;-72
2022/10/21 03:31:49;;;;;;;26.67;13.77;;;1.90;99.90;;;;;;4738418;30;20242;-72
2022/10/21 03:34:16;;;;;;;28.90;14.13;;;1.90;99.90;;;;;;4753178;30;20209;-72
2022/10/21 03:36:44;;;;;;;27.23;14.20;;;1.90;99.90;;;;;;4754086;30;20210;-72
2022/10/21 03:39:11;;;;;;;26.43;13.47;;;1.90;99.90;;;;;;4753545;30;20206;-72
2022/10/21 03:41:38;;;;;;;25.53;13.33;;;1.80;99.90;;;;;;4754140;30;20565;-72
2022/10/21 03:44:06;;;;;;;27.47;13.93;;;1.80;99.90;;;;;;4754163;30;20208;-73
2022/10/21 03:46:33;;;;;;;27.27;13.87;;;1.80;99.90;;;;;;4738159;30;20685;-72
2022/10/21 03:49:00;;;;;;;26.07;13.50;;;1.80;99.90;;;;;;4737656;30;20265;-72
2022/10/21 03:51:32;;;;;;;27.90;14.17;;;1.70;99.90;;;;;;4738025;30;20267;-73
2022/10/21 03:53:59;;;;;;;27.43;14.33;;;1.80;99.90;;;;;;4752868;30;20630;-73
2022/10/21 03:56:26;;;;;;;27.80;14.13;;;1.70;99.90;;;;;;4754080;30;20213;-73
2022/10/21 03:58:53;;;;;;;27.93;14.13;;;1.80;99.90;;;;;;4737923;30;20701;-72
2022/10/21 04:01:25;;;;;;;30.30;13.63;;;1.80;99.90;;;;;;4752584;30;20229;-73
2022/10/21 04:03:53;;;;;;;28.17;13.43;;;1.80;99.90;;;;;;4737712;30;20652;-73
2022/10/21 04:06:20;;;;;;;24.37;13.33;;;1.80;99.90;;;;;;4753519;30;20205;-73
2022/10/21 04:08:48;;;;;;;28.77;13.70;;;1.80;99.90;;;;;;4753688;30;20622;-73
2022/10/21 04:11:15;;;;;;;25.80;13.03;;;1.80;99.90;;;;;;4737591;30;20572;-73
2022/10/21 04:13:42;;;;;;;27.80;13.77;;;1.80;99.90;;;;;;4737656;30;20286;-73
2022/10/21 04:16:14;;;;;;;24.83;12.53;;;1.80;99.90;;;;;;4737442;30;20289;-73
2022/10/21 04:18:41;;;;;;;24.30;12.73;;;1.80;99.90;;;;;;4737462;30;20218;-73
2022/10/21 04:21:09;;;;;;;25.00;12.67;;;1.90;99.90;;;;;;4737555;30;20233;-72
2022/10/21 04:23:36;;;;;;;24.53;12.73;;;1.90;99.90;;;;;;4753399;30;20281;-73
2022/10/21 04:26:05;;;;;;;25.50;12.50;;;1.80;99.90;;;;;;4737623;30;20792;-73
2022/10/21 04:28:32;;;;;;;25.07;12.73;;;1.80;99.90;;;;;;4737455;30;20217;-72
2022/10/21 04:31:00;;;;;;;25.67;13.03;;;1.80;99.90;;;;;;4751977;30;20251;-72
2022/10/21 04:33:27;;;;;;;27.60;12.73;;;1.90;99.90;;;;;;4737195;30;20297;-73
2022/10/21 04:35:55;;;;;;;26.10;13.37;;;1.90;99.90;;;;;;4737245;30;20251;-72
2022/10/21 04:38:22;;;;;;;24.63;12.57;;;1.90;99.90;;;;;;4753170;30;20201;-73
2022/10/21 04:40:57;;;;;;;26.07;13.27;;;1.90;99.90;;;;;;4737704;30;20201;-72
2022/10/21 04:43:25;;;;;;;26.57;13.33;;;1.90;99.90;;;;;;4737293;30;20266;-72
2022/10/21 04:45:53;;;;;;;27.17;12.63;;;1.90;99.90;;;;;;4737081;30;20213;-72
2022/10/21 04:48:20;;;;;;;26.10;12.80;;;1.90;99.90;;;;;;4737018;30;20218;-72
2022/10/21 04:50:52;;;;;;;23.40;12.40;;;2.00;99.90;;;;;;4746369;30;20234;-73
2022/10/21 04:53:20;;;;;;;25.80;12.70;;;2.00;99.90;;;;;;4766542;30;20213;-72
2022/10/21 04:55:52;;;;;;;28.90;13.33;;;2.00;99.90;;;;;;4766469;30;20295;-72
2022/10/21 04:58:20;;;;;;;27.07;13.20;;;2.00;99.90;;;;;;4751700;30;20209;-72
2022/10/21 05:00:49;;;;;;;22.90;11.63;;;2.00;99.90;;;;;;4751391;30;20264;-73
2022/10/21 05:03:17;;;;;;;25.13;12.50;;;2.10;99.90;;;;;;4751566;30;20246;-72
2022/10/21 05:05:47;;;;;;;22.70;12.23;;;2.10;99.90;;;;;;4751426;30;20297;-72
2022/10/21 05:08:15;;;;;;;23.77;12.80;;;2.10;99.90;;;;;;4751598;30;20263;-72
2022/10/21 05:10:42;;;;;;;24.43;11.77;;;2.20;99.90;;;;;;4751434;30;20209;-73
2022/10/21 05:13:09;;;;;;;24.37;12.37;;;2.10;99.90;;;;;;4751408;30;20261;-73
2022/10/21 05:15:40;;;;;;;24.40;12.03;;;2.10;99.90;;;;;;4752325;30;20194;-72
2022/10/21 05:18:07;;;;;;;23.00;12.17;;;2.20;99.90;;;;;;4751303;30;20677;-72
2022/10/21 05:20:34;;;;;;;22.60;11.60;;;2.20;99.90;;;;;;4766160;30;20215;-74
2022/10/21 05:23:01;;;;;;;22.97;11.93;;;2.20;99.90;;;;;;4765896;30;20324;-74
2022/10/21 05:25:28;;;;;;;24.47;12.40;;;2.20;99.90;;;;;;4751118;30;20213;-72
2022/10/21 05:28:00;;;;;;;23.13;12.30;;;2.20;99.90;;;;;;4751309;30;20197;-72
2022/10/21 05:30:27;;;;;;;22.63;12.47;;;2.20;99.90;;;;;;4751521;30;20202;-71
2022/10/21 05:32:54;;;;;;;23.37;12.37;;;2.20;99.90;;;;;;4751286;30;20296;-72
2022/10/21 05:35:21;;;;;;;25.73;13.00;;;2.10;99.90;;;;;;4765983;30;20202;-72
2022/10/21 05:37:49;;;;;;;24.97;12.70;;;2.10;99.90;;;;;;4765703;30;20304;-72
2022/10/21 05:40:17;;;;;;;27.03;12.97;;;2.10;99.90;;;;;;4752377;30;20205;-72
2022/10/21 05:42:44;;;;;;;27.10;13.53;;;2.20;99.90;;;;;;4736423;30;20631;-72
2022/10/21 05:45:11;;;;;;;28.60;13.83;;;2.20;99.90;;;;;;4750894;30;20212;-71
2022/10/21 05:47:42;;;;;;;24.57;12.93;;;2.20;99.90;;;;;;4752482;30;20576;-72
2022/10/21 05:50:10;;;;;;;23.13;12.60;;;2.10;99.90;;;;;;4752203;30;20237;-72
2022/10/21 05:52:38;;;;;;;25.87;13.23;;;2.20;99.90;;;;;;4736050;30;20271;-72
2022/10/21 05:55:06;;;;;;;27.20;13.10;;;2.30;99.90;;;;;;4752005;30;20193;-72
2022/10/21 05:57:35;;;;;;;24.67;13.00;;;2.30;99.90;;;;;;4750781;30;20218;-72
2022/10/21 06:00:04;;;;;;;26.93;12.20;;;2.40;99.90;;;;;;4735917;30;20216;-72
2022/10/21 06:02:32;;;;;;;24.93;12.37;;;2.40;99.90;;;;;;4751870;30;20217;-73
2022/10/21 06:04:59;;;;;;;25.17;12.73;;;2.50;99.90;;;;;;4735928;30;20211;-72
2022/10/21 06:07:26;;;;;;;25.93;12.20;;;2.50;99.90;;;;;;4735986;30;20258;-71
2022/10/21 06:09:53;;;;;;;26.67;12.63;;;2.60;99.90;;;;;;4750976;30;20657;-71
2022/10/21 06:12:21;;;;;;;23.77;12.33;;;2.60;99.90;;;;;;4736248;30;20213;-72
2022/10/21 06:14:48;;;;;;;22.93;11.83;;;2.60;99.90;;;;;;4739558;30;20198;-72
2022/10/21 06:17:15;;;;;;;23.43;12.03;;;2.60;99.90;;;;;;4754268;30;20214;-72
2022/10/21 06:19:42;;;;;;;25.30;12.47;;;2.60;99.90;;;;;;4739592;30;20217;-71
2022/10/21 06:22:15;;;;;;;23.23;11.37;;;2.50;99.90;;;;;;4755280;30;20221;-72
2022/10/21 06:24:43;;;;;;;22.63;11.70;;;2.60;99.90;;;;;;4739359;30;20665;-72
2022/10/21 06:27:10;;;;;;;23.27;12.03;;;2.60;99.90;;;;;;4739267;30;20263;-72
2022/10/21 06:29:37;;;;;;;24.17;11.97;;;2.70;99.90;;;;;;4739264;30;20212;-72
2022/10/21 06:32:04;;;;;;;21.33;11.73;;;2.60;99.90;;;;;;4753981;30;20316;-72
2022/10/21 06:34:31;;;;;;;21.77;11.27;;;2.70;99.90;;;;;;4755358;30;20294;-73
2022/10/21 06:36:58;;;;;;;24.60;12.10;;;2.80;99.90;;;;;;4739229;30;20202;-75
2022/10/21 06:39:25;;;;;;;24.17;11.53;;;2.80;99.90;;;;;;4754606;30;20223;-73
2022/10/21 06:41:52;;;;;;;22.67;11.40;;;2.80;99.90;;;;;;4739151;30;20655;-73
2022/10/21 06:44:19;;;;;;;21.50;11.03;;;2.90;99.90;;;;;;4739169;30;20245;-74
2022/10/21 06:46:47;;;;;;;19.07;10.80;;;3.00;99.90;;;;;;4739195;30;20233;-74
2022/10/21 06:49:13;;;;;;;24.77;11.17;;;3.10;99.90;;;;;;4753883;30;20210;-73
2022/10/21 06:51:40;;;;;;;20.27;11.27;;;3.10;99.90;;;;;;4738872;30;20729;-73
2022/10/21 06:54:07;;;;;;;23.23;11.53;;;3.20;99.90;;;;;;4738816;30;20217;-73
2022/10/21 06:56:34;;;;;;;22.93;11.03;;;3.30;99.90;;;;;;4738942;30;20661;-73
2022/10/21 06:59:02;;;;;;;21.03;10.73;;;3.40;99.90;;;;;;4753457;30;20263;-74
2022/10/21 07:01:32;;;;;;;24.00;11.03;;;3.50;99.90;;;;;;4753616;30;20210;-73
2022/10/21 07:04:20;;;;;;;20.70;10.80;;;3.60;99.90;;;;;;4753500;30;20206;-73
2022/10/21 07:06:48;;;;;;;19.63;10.27;;;3.80;99.90;;;;;;4753498;30;20210;-73
2022/10/21 07:09:18;;;;;;;18.60;9.80;;;3.90;99.90;;;;;;4738427;30;20218;-74
2022/10/21 07:11:46;;;;;;;18.87;9.63;;;3.90;99.90;;;;;;4754658;30;20285;-73
2022/10/21 07:14:13;;;;;;;20.00;9.53;;;3.90;99.90;;;;;;4754653;30;20205;-73
2022/10/21 07:16:40;;;;;;;20.20;9.60;;;4.00;99.90;;;;;;4753275;30;20213;-73
2022/10/21 07:19:08;;;;;;;15.17;8.77;;;4.10;99.90;;;;;;4753381;30;20210;-73
2022/10/21 07:21:36;;;;;;;17.17;8.70;;;4.20;99.90;;;;;;4754314;30;20310;-73
2022/10/21 07:24:03;;;;;;;17.07;8.63;;;4.30;99.90;;;;;;4753041;30;20206;-74
2022/10/21 07:26:32;;;;;;;17.33;9.33;;;4.40;99.90;;;;;;4738290;30;20583;-74
2022/10/21 07:29:00;;;;;;;19.83;9.63;;;4.50;99.90;;;;;;4753151;30;20224;-73
2022/10/21 07:31:30;;;;;;;15.90;8.57;;;4.60;99.90;;;;;;4738480;30;20203;-74
2022/10/21 07:33:59;;;;;;;17.13;9.17;;;4.70;99.90;;;;;;4754461;30;20342;-74
2022/10/21 07:36:31;;;;;;;16.97;9.03;;;4.90;99.90;;;;;;4753157;30;20217;-73
2022/10/21 07:39:01;;;;;;;16.97;9.23;;;4.80;99.90;;;;;;4738090;30;20216;-74
2022/10/21 07:41:32;;;;;;;18.77;9.90;;;4.90;99.90;;;;;;4738248;30;20315;-72
2022/10/21 07:44:00;;;;;;;20.47;10.07;;;5.20;99.90;;;;;;4738038;30;20300;-73
2022/10/21 07:46:27;;;;;;;16.17;9.10;;;5.30;99.90;;;;;;4738163;30;20278;-73
2022/10/21 07:48:54;;;;;;;16.63;9.50;;;5.40;99.90;;;;;;4754103;30;20579;-73
2022/10/21 07:51:24;;;;;;;17.70;9.03;;;5.50;99.90;;;;;;4753699;30;20323;-76
2022/10/21 07:53:58;;;;;;;15.87;9.20;;;5.70;99.90;;;;;;4752857;30;20246;-75
2022/10/21 07:56:28;;;;;;;16.47;8.87;;;5.90;99.90;;;;;;4753978;30;20290;-75
2022/10/21 07:58:56;;;;;;;14.90;8.60;;;5.80;99.90;;;;;;4753862;30;20200;-76
2022/10/21 08:01:23;;;;;;;14.70;8.47;;;5.80;99.90;;;;;;4754254;30;20212;-75
2022/10/21 08:03:53;;;;;;;17.20;9.03;;;5.90;99.90;;;;;;4752779;30;20237;-75
2022/10/21 08:06:22;;;;;;;18.07;8.53;;;6.10;99.90;;;;;;4737846;30;20209;-76
2022/10/21 08:08:49;;;;;;;14.83;8.37;;;6.20;99.90;;;;;;4752977;30;20213;-75
2022/10/21 08:11:29;;;;;;;18.00;8.50;;;6.20;99.90;;;;;;4737633;30;20212;-75
2022/10/21 08:13:56;;;;;;;15.27;8.17;;;6.10;99.90;;;;;;4753590;30;20675;-75
2022/10/21 08:16:25;;;;;;;13.30;8.17;;;6.00;99.90;;;;;;4753331;30;20627;-74
2022/10/21 08:18:53;;;;;;;17.83;8.77;;;6.00;99.90;;;;;;4752033;30;20686;-75
2022/10/21 08:21:20;;;;;;;13.10;7.83;;;6.30;99.90;;;;;;4737741;30;20227;-75
2022/10/21 08:23:47;;;;;;;14.67;8.20;;;6.30;99.90;;;;;;4737269;30;20240;-75
2022/10/21 08:26:15;;;;;;;15.30;8.67;;;6.30;99.90;;;;;;4737322;30;20300;-74
2022/10/21 08:28:43;;;;;;;16.27;8.00;;;6.40;99.90;;;;;;4751972;30;20275;-74
2022/10/21 08:31:13;;;;;;;15.47;7.77;;;6.50;99.90;;;;;;4753184;30;20227;-74
2022/10/21 08:33:40;;;;;;;14.23;8.00;;;6.80;99.90;;;;;;4751590;30;20689;-74
2022/10/21 08:36:11;;;;;;;13.77;7.83;;;6.50;99.90;;;;;;4736754;30;20299;-74
2022/10/21 08:38:38;;;;;;;15.90;8.00;;;6.60;99.90;;;;;;4737087;30;20216;-74
2022/10/21 08:41:20;;;;;;;13.37;8.00;;;6.60;99.90;;;;;;4737248;30;20210;-74
2022/10/21 08:43:47;;;;;;;14.47;8.00;;;6.60;99.90;;;;;;4737261;30;20230;-74
2022/10/21 08:46:18;;;;;;;12.43;7.40;;;6.60;99.90;;;;;;4736967;30;20732;-75
2022/10/21 08:48:54;;;;;;;14.43;8.00;;;6.60;99.90;;;;;;4752155;30;20313;-74
2022/10/21 08:51:56;;;;;;;13.83;7.83;;;6.70;99.90;;;;;;4748434;30;20770;-74
2022/10/21 08:54:33;;;;;;;12.77;7.30;;;6.70;99.90;;;;;;4751872;30;20612;-74
2022/10/21 08:57:01;;;;;;;18.13;7.60;;;6.80;99.90;;;;;;4751312;30;20252;-74
2022/10/21 08:59:28;;;;;;;12.40;7.37;;;6.80;99.90;;;;;;4751436;30;20212;-74
2022/10/21 09:02:11;;;;;;;14.10;8.13;;;6.80;99.90;;;;;;4752968;30;20208;-75
2022/10/21 09:05:16;;;;;;;14.07;7.80;;;7.00;99.90;;;;;;4751529;30;20228;-75
2022/10/21 09:08:02;;;;;;;11.07;7.33;;;7.30;99.90;;;;;;4751373;30;20245;-76
2022/10/21 09:10:47;;;;;;;11.67;7.60;;;7.40;99.90;;;;;;4751358;30;20205;-75
2022/10/21 09:13:27;;;;;;;14.30;7.97;;;7.70;99.90;;;;;;4751314;30;20212;-74
2022/10/21 09:16:18;;;;;;;11.77;7.10;;;8.10;99.90;;;;;;4751176;30;20204;-75
2022/10/21 09:19:11;;;;;;;12.50;7.07;;;8.50;99.90;;;;;;4751460;30;20287;-74
2022/10/21 09:22:14;;;;;;;11.20;7.20;;;8.70;99.90;;;;;;4751390;30;20265;-74
2022/10/21 09:25:31;;;;;;;14.47;7.57;;;9.10;99.90;;;;;;4751017;30;20298;-74
2022/10/21 09:28:00;;;;;;;13.73;7.00;;;9.50;99.90;;;;;;4752445;30;20730;-75
2022/10/21 09:30:28;;;;;;;10.73;6.77;;;9.60;99.90;;;;;;4751160;30;20229;-75
2022/10/21 09:32:57;;;;;;;12.60;7.87;;;9.60;99.90;;;;;;4751037;30;20230;-74
2022/10/21 09:35:36;;;;;;;12.17;7.50;;;9.60;99.90;;;;;;4751038;30;20209;-74
2022/10/21 09:38:09;;;;;;;13.00;7.50;;;9.90;99.90;;;;;;4751081;30;20217;-76
2022/10/21 09:40:36;;;;;;;12.50;7.47;;;10.00;99.90;;;;;;4750889;30;20240;-76
2022/10/21 09:43:12;;;;;;;12.83;7.70;;;9.80;99.90;;;;;;4765809;30;20248;-75
2022/10/21 09:45:42;;;;;;;12.73;7.13;;;9.90;99.90;;;;;;4750882;30;20349;-76
2022/10/21 09:48:18;;;;;;;13.63;7.37;;;9.80;99.90;;;;;;4750290;30;20212;-75
2022/10/21 09:50:53;;;;;;;13.33;7.70;;;9.60;99.90;;;;;;4752055;30;20596;-75
2022/10/21 09:53:30;;;;;;;11.10;7.40;;;9.40;99.90;;;;;;4752138;30;20211;-75
2022/10/21 09:56:05;;;;;;;13.20;6.67;;;9.50;99.90;;;;;;4735897;30;20605;-76
2022/10/21 09:58:41;;;;;;;10.63;7.13;;;9.70;99.90;;;;;;4750828;30;20212;-76
2022/10/21 10:01:14;;;;;;;12.70;7.03;;;9.60;99.90;;;;;;4736077;30;20233;-75
2022/10/21 10:03:44;;;;;;;13.10;6.80;;;9.40;99.90;;;;;;4750541;30;20324;-75
2022/10/21 10:06:11;;;;;;;13.10;7.20;;;9.60;99.90;;;;;;4721550;30;20233;-75
2022/10/21 10:08:41;;;;;;;13.50;6.87;;;9.90;99.90;;;;;;4750958;30;20220;-74
2022/10/21 10:11:08;;;;;;;13.43;7.20;;;10.00;99.90;;;;;;4750440;30;20209;-75
2022/10/21 10:13:43;;;;;;;11.43;6.67;;;10.20;99.90;;;;;;4736404;30;20209;-76
2022/10/21 10:16:13;;;;;;;13.23;6.70;;;10.30;99.90;;;;;;4736067;30;20649;-74
2022/10/21 10:18:41;;;;;;;11.43;7.00;;;10.50;99.90;;;;;;4736356;30;20213;-74
2022/10/21 10:21:14;;;;;;;13.50;7.20;;;10.70;99.90;;;;;;4736259;30;20263;-76
2022/10/21 10:23:48;;;;;;;13.23;7.23;;;10.80;99.90;;;;;;4736099;30;20301;-73
2022/10/21 10:26:24;;;;;;;11.03;6.80;;;10.70;99.90;;;;;;4735879;30;20271;-73
2022/10/21 10:28:57;;;;;;;10.53;6.60;;;10.60;99.90;;;;;;4736041;30;20333;-74
2022/10/21 10:31:35;;;;;;;12.53;6.93;;;10.70;99.90;;;;;;4736251;30;20202;-73
2022/10/21 10:34:06;;;;;;;12.63;7.27;;;10.90;99.90;;;;;;4735784;30;20229;-77
2022/10/21 10:36:38;;;;;;;14.93;7.23;;;11.30;99.90;;;;;;4750734;30;20213;-74
2022/10/21 10:39:15;;;;;;;11.30;7.27;;;11.70;99.90;;;;;;4751908;30;20190;-75
2022/10/21 10:41:46;;;;;;;13.07;7.23;;;12.00;99.90;;;;;;4735906;30;20217;-76
2022/10/21 10:44:41;;;;;;;12.00;6.93;;;12.50;99.90;;;;;;4752116;30;20229;-78
2022/10/21 10:47:19;;;;;;;11.17;6.97;;;13.10;99.90;;;;;;4736318;30;20204;-77
2022/10/21 10:49:46;;;;;;;13.27;7.00;;;13.50;99.90;;;;;;4750662;30;20237;-75
2022/10/21 10:52:20;;;;;;;13.47;7.07;;;13.60;99.90;;;;;;4736126;30;20206;-77
2022/10/21 10:55:07;;;;;;;12.37;6.37;;;13.50;99.90;;;;;;4735878;30;20205;-77
2022/10/21 10:57:36;;;;;;;12.50;6.70;;;13.50;99.90;;;;;;4751609;30;20220;-77
2022/10/21 11:00:22;;;;;;;12.33;7.00;;;13.60;99.90;;;;;;4754103;30;20289;-78
2022/10/21 11:03:15;;;;;;;11.30;6.50;;;13.60;99.90;;;;;;4755107;30;20210;-77
2022/10/21 11:05:49;;;;;;;11.80;6.93;;;13.60;99.90;;;;;;4754839;30;20762;-76
2022/10/21 11:08:31;;;;;;;12.63;6.43;;;13.60;99.90;;;;;;4754877;30;20203;-77
2022/10/21 11:11:04;;;;;;;12.10;6.47;;;13.70;99.90;;;;;;4753707;30;20228;-77
2022/10/21 11:13:35;;;;;;;11.07;6.87;;;13.90;99.90;;;;;;4738904;30;20210;-75
2022/10/21 11:16:53;;;;;;;12.27;6.80;;;14.20;99.90;;;;;;4753276;30;20335;-76
2022/10/21 11:19:49;;;;;;;13.03;6.90;;;14.90;99.90;;;;;;4699989;30;20215;-78
2022/10/21 11:22:41;;;;;;;12.43;6.77;;;15.30;99.90;;;;;;4699761;30;20722;-75
2022/10/21 11:25:13;;;;;;;11.63;7.07;;;15.50;99.90;;;;;;4685475;30;20204;-74
2022/10/21 11:28:09;;;;;;;12.43;7.53;;;15.50;99.90;;;;;;4699814;30;20261;-74
2022/10/21 11:30:36;;;;;;;13.73;7.37;;;15.60;99.90;;;;;;4696822;30;20223;-75
2022/10/21 11:33:25;;;;;;;11.90;7.40;;;16.20;99.90;;;;;;4699700;30;20220;-75
2022/10/21 11:36:05;;;;;;;11.03;6.47;;;16.60;99.90;;;;;;4685242;30;20207;-75
2022/10/21 11:38:45;;;;;;;11.53;7.00;;;17.00;99.90;;;;;;4699763;30;20691;-75
2022/10/21 11:41:18;;;;;;;10.73;6.47;;;17.40;99.90;;;;;;4671030;30;20218;-74
2022/10/21 11:43:52;;;;;;;9.50;6.73;;;17.70;99.90;;;;;;4699593;30;20263;-74
2022/10/21 11:46:39;;;;;;;11.17;6.83;;;18.00;99.90;;;;;;4699468;30;20241;-75
2022/10/21 11:49:27;;;;;;;11.30;6.93;;;18.50;99.90;;;;;;4699597;30;20218;-75
2022/10/21 11:52:03;;;;;;;11.13;7.13;;;18.30;99.90;;;;;;4685052;30;20254;-76
2022/10/21 11:54:36;;;;;;;11.70;7.37;;;18.10;99.90;;;;;;4699457;30;20207;-78
2022/10/21 11:57:18;;;;;;;10.57;6.67;;;18.40;99.90;;;;;;4734678;30;20206;-76
2022/10/21 12:00:02;;;;;;;10.77;7.40;;;18.20;99.90;;;;;;4738034;30;20206;-77
2022/10/21 12:03:00;;;;;;;11.50;6.80;;;18.10;99.90;;;;;;4737897;30;20217;-77
2022/10/21 12:05:32;;;;;;;10.67;6.83;;;18.40;99.90;;;;;;4737794;30;20213;-76
2022/10/21 12:08:08;;;;;;;10.47;6.73;;;18.70;99.90;;;;;;4753794;30;20646;-76
2022/10/21 12:10:58;;;;;;;13.13;7.20;;;18.20;99.60;;;;;;4737508;30;20719;-76
2022/10/21 12:13:48;;;;;;;11.07;6.90;;;16.90;99.90;;;;;;4737662;30;20206;-76
2022/10/21 12:16:18;;;;;;;8.33;6.33;;;16.10;99.90;;;;;;4753349;30;20719;-74
2022/10/21 12:19:09;;;;;;;13.70;6.83;;;15.50;99.90;;;;;;4752184;30;20588;-75
2022/10/21 12:21:41;;;;;;;10.10;6.53;;;15.00;99.90;;;;;;4752126;30;20648;-74
2022/10/21 12:24:29;;;;;;;9.70;6.43;;;14.50;99.90;;;;;;4737439;30;20237;-74
2022/10/21 12:27:12;;;;;;;10.30;6.47;;;14.00;99.90;;;;;;4753116;30;20664;-75
2022/10/21 12:29:59;;;;;;;9.20;6.23;;;13.90;99.90;;;;;;4753595;30;20218;-75
2022/10/21 12:32:45;;;;;;;9.80;6.50;;;13.60;99.90;;;;;;4753894;30;20209;-75
2022/10/21 12:35:15;;;;;;;9.90;6.47;;;13.40;99.90;;;;;;4753472;30;20219;-75
2022/10/21 12:38:05;;;;;;;9.30;5.67;;;13.10;99.90;;;;;;4737714;30;20211;-75
2022/10/21 12:40:32;;;;;;;9.70;6.07;;;13.00;99.90;;;;;;4737228;30;20212;-75
2022/10/21 12:43:05;;;;;;;11.40;6.30;;;12.80;99.90;;;;;;4737035;30;20221;-75
2022/10/21 12:45:41;;;;;;;10.67;6.30;;;12.50;99.90;;;;;;4737242;30;20617;-75
2022/10/21 12:48:26;;;;;;;10.87;6.33;;;12.30;99.90;;;;;;4751828;30;20205;-74
2022/10/21 12:51:00;;;;;;;9.93;6.30;;;12.10;99.90;;;;;;4759879;30;20249;-75
2022/10/21 12:53:30;;;;;;;9.90;6.40;;;11.90;99.90;;;;;;4753149;30;20220;-76
2022/10/21 12:55:58;;;;;;;10.53;6.20;;;11.80;99.90;;;;;;4752902;30;20296;-75
2022/10/21 12:58:36;;;;;;;10.63;6.00;;;11.80;99.90;;;;;;4753001;30;20201;-75
2022/10/21 13:01:05;;;;;;;11.17;6.10;;;11.70;99.90;;;;;;4751553;30;20629;-75
2022/10/21 13:03:44;;;;;;;9.80;6.00;;;11.70;99.90;;;;;;4751417;30;20253;-75
2022/10/21 13:06:12;;;;;;;10.13;6.33;;;11.60;99.90;;;;;;4751549;30;20209;-75
2022/10/21 13:08:53;;;;;;;10.80;6.27;;;11.50;99.90;;;;;;4766515;30;20295;-75